sensor_id;sensor_type;location;lat;lon;timestamp;pressure;altitude;pressure_sealevel;temperature;humidity
61472;BME280;47337;54.068;12.114;2022-08-03T00:01:54;101067.97;;;20.17;74.69
61472;BME280;47337;54.068;12.114;2022-08-03T00:04:19;101049.84;;;20.31;73.76
61472;BME280;47337;54.068;12.114;2022-08-03T00:06:47;101035.47;;;20.38;72.68
61472;BME280;47337;54.068;12.114;2022-08-03T00:09:14;101030.25;;;20.32;72.18
61472;BME280;47337;54.068;12.114;2022-08-03T00:11:40;101032.16;;;20.27;72.56
61472;BME280;47337;54.068;12.114;2022-08-03T00:14:05;101037.72;;;20.18;73.04
61472;BME280;47337;54.068;12.114;2022-08-03T00:16:31;101048.44;;;20.15;73.50
61472;BME280;47337;54.068;12.114;2022-08-03T00:18:56;101050.38;;;20.10;73.83
61472;BME280;47337;54.068;12.114;2022-08-03T00:21:22;101052.09;;;20.13;73.57
61472;BME280;47337;54.068;12.114;2022-08-03T00:23:47;101053.06;;;20.08;73.32
61472;BME280;47337;54.068;12.114;2022-08-03T00:26:13;101043.31;;;20.07;73.61
61472;BME280;47337;54.068;12.114;2022-08-03T00:28:38;101045.16;;;20.04;73.83
61472;BME280;47337;54.068;12.114;2022-08-03T00:31:04;101041.69;;;20.02;73.88
61472;BME280;47337;54.068;12.114;2022-08-03T00:33:32;101037.88;;;20.12;73.34
61472;BME280;47337;54.068;12.114;2022-08-03T00:35:57;101028.19;;;20.08;72.43
61472;BME280;47337;54.068;12.114;2022-08-03T00:38:23;101029.13;;;20.07;72.00
61472;BME280;47337;54.068;12.114;2022-08-03T00:40:48;101029.19;;;20.04;71.83
61472;BME280;47337;54.068;12.114;2022-08-03T00:43:13;101039.94;;;20.01;72.36
61472;BME280;47337;54.068;12.114;2022-08-03T00:45:40;101041.81;;;19.96;73.22
61472;BME280;47337;54.068;12.114;2022-08-03T00:48:07;101035.69;;;19.92;73.00
61472;BME280;47337;54.068;12.114;2022-08-03T00:50:35;101040.44;;;20.15;73.28
61472;BME280;47337;54.068;12.114;2022-08-03T00:53:04;101016.00;;;20.33;71.84
61472;BME280;47337;54.068;12.114;2022-08-03T00:55:30;100995.44;;;20.38;70.95
61472;BME280;47337;54.068;12.114;2022-08-03T00:57:56;101005.22;;;20.39;71.22
61472;BME280;47337;54.068;12.114;2022-08-03T01:00:25;101004.47;;;20.33;70.98
61472;BME280;47337;54.068;12.114;2022-08-03T01:02:51;101000.38;;;20.20;71.57
61472;BME280;47337;54.068;12.114;2022-08-03T01:05:19;101003.13;;;20.15;71.91
61472;BME280;47337;54.068;12.114;2022-08-03T01:08:07;101009.84;;;19.96;72.57
61472;BME280;47337;54.068;12.114;2022-08-03T01:15:39;101020.88;;;19.81;73.72
61472;BME280;47337;54.068;12.114;2022-08-03T01:18:22;101035.28;;;19.72;74.49
61472;BME280;47337;54.068;12.114;2022-08-03T01:20:55;101028.03;;;19.79;74.53
61472;BME280;47337;54.068;12.114;2022-08-03T01:28:58;100996.00;;;20.16;71.79
61472;BME280;47337;54.068;12.114;2022-08-03T01:31:35;100997.34;;;19.98;72.26
61472;BME280;47337;54.068;12.114;2022-08-03T01:34:02;101006.25;;;19.97;72.71
61472;BME280;47337;54.068;12.114;2022-08-03T01:36:51;100998.53;;;19.86;73.02
61472;BME280;47337;54.068;12.114;2022-08-03T01:39:19;101007.94;;;19.64;73.63
61472;BME280;47337;54.068;12.114;2022-08-03T01:42:00;101026.06;;;19.47;74.92
61472;BME280;47337;54.068;12.114;2022-08-03T01:44:33;101032.53;;;19.35;75.63
61472;BME280;47337;54.068;12.114;2022-08-03T01:47:01;101036.94;;;19.36;76.28
61472;BME280;47337;54.068;12.114;2022-08-03T01:49:29;101039.53;;;19.39;76.70
61472;BME280;47337;54.068;12.114;2022-08-03T01:51:57;101028.97;;;19.36;76.71
61472;BME280;47337;54.068;12.114;2022-08-03T01:54:25;101026.56;;;19.24;76.56
61472;BME280;47337;54.068;12.114;2022-08-03T01:56:53;101027.47;;;19.23;76.39
61472;BME280;47337;54.068;12.114;2022-08-03T01:59:21;101025.84;;;19.16;76.81
61472;BME280;47337;54.068;12.114;2022-08-03T02:01:47;101035.75;;;19.08;77.60
61472;BME280;47337;54.068;12.114;2022-08-03T02:04:19;101042.34;;;18.90;78.55
61472;BME280;47337;54.068;12.114;2022-08-03T02:06:47;101060.47;;;18.68;80.34
61472;BME280;47337;54.068;12.114;2022-08-03T02:09:13;101068.75;;;18.51;81.76
61472;BME280;47337;54.068;12.114;2022-08-03T02:11:42;101066.31;;;18.38;82.51
61472;BME280;47337;54.068;12.114;2022-08-03T02:14:11;101063.78;;;18.32;82.89
61472;BME280;47337;54.068;12.114;2022-08-03T02:16:40;101066.47;;;18.28;83.17
61472;BME280;47337;54.068;12.114;2022-08-03T02:19:08;101047.75;;;18.35;82.25
61472;BME280;47337;54.068;12.114;2022-08-03T02:21:35;101052.31;;;18.26;82.31
61472;BME280;47337;54.068;12.114;2022-08-03T02:24:02;101057.81;;;18.16;82.97
61472;BME280;47337;54.068;12.114;2022-08-03T02:26:31;101060.34;;;18.23;83.58
61472;BME280;47337;54.068;12.114;2022-08-03T02:29:02;101066.63;;;18.19;83.52
61472;BME280;47337;54.068;12.114;2022-08-03T02:31:32;101056.75;;;18.26;83.54
61472;BME280;47337;54.068;12.114;2022-08-03T02:34:01;101056.84;;;18.21;83.89
61472;BME280;47337;54.068;12.114;2022-08-03T02:36:34;101057.63;;;18.26;84.29
61472;BME280;47337;54.068;12.114;2022-08-03T02:39:02;101055.84;;;18.28;84.39
61472;BME280;47337;54.068;12.114;2022-08-03T02:41:50;101050.50;;;18.30;84.62
61472;BME280;47337;54.068;12.114;2022-08-03T02:44:24;101054.25;;;18.17;85.02
61472;BME280;47337;54.068;12.114;2022-08-03T02:46:54;101055.34;;;18.04;86.05
61472;BME280;47337;54.068;12.114;2022-08-03T02:49:22;101067.00;;;17.95;87.11
61472;BME280;47337;54.068;12.114;2022-08-03T02:51:51;101068.72;;;17.99;87.33
61472;BME280;47337;54.068;12.114;2022-08-03T02:54:18;101068.72;;;17.99;87.54
61472;BME280;47337;54.068;12.114;2022-08-03T02:56:45;101065.38;;;17.85;88.15
61472;BME280;47337;54.068;12.114;2022-08-03T02:59:12;101064.63;;;17.77;88.72
61472;BME280;47337;54.068;12.114;2022-08-03T03:01:39;101071.78;;;17.70;89.88
61472;BME280;47337;54.068;12.114;2022-08-03T03:04:05;101069.25;;;17.60;90.91
61472;BME280;47337;54.068;12.114;2022-08-03T03:06:31;101065.84;;;17.50;92.10
61472;BME280;47337;54.068;12.114;2022-08-03T03:08:58;101071.25;;;17.42;93.03
61472;BME280;47337;54.068;12.114;2022-08-03T03:11:24;101067.72;;;17.40;93.17
61472;BME280;47337;54.068;12.114;2022-08-03T03:13:56;101070.47;;;17.36;93.26
61472;BME280;47337;54.068;12.114;2022-08-03T03:16:22;101069.63;;;17.32;93.47
61472;BME280;47337;54.068;12.114;2022-08-03T03:18:48;101069.66;;;17.29;93.42
61472;BME280;47337;54.068;12.114;2022-08-03T03:21:16;101063.47;;;17.29;93.61
61472;BME280;47337;54.068;12.114;2022-08-03T03:23:44;101067.00;;;17.28;93.66
61472;BME280;47337;54.068;12.114;2022-08-03T03:26:14;101063.47;;;17.27;93.86
61472;BME280;47337;54.068;12.114;2022-08-03T03:28:40;101064.31;;;17.32;93.87
61472;BME280;47337;54.068;12.114;2022-08-03T03:31:09;101063.25;;;17.45;93.98
61472;BME280;47337;54.068;12.114;2022-08-03T03:33:37;101060.66;;;17.39;93.50
61472;BME280;47337;54.068;12.114;2022-08-03T03:36:04;101064.22;;;17.38;93.75
61472;BME280;47337;54.068;12.114;2022-08-03T03:38:31;101055.31;;;17.42;93.57
61472;BME280;47337;54.068;12.114;2022-08-03T03:40:57;101065.84;;;17.48;94.19
61472;BME280;47337;54.068;12.114;2022-08-03T03:43:23;101065.81;;;17.51;95.12
61472;BME280;47337;54.068;12.114;2022-08-03T03:45:49;101069.34;;;17.53;95.86
61472;BME280;47337;54.068;12.114;2022-08-03T03:48:17;101068.41;;;17.58;96.44
61472;BME280;47337;54.068;12.114;2022-08-03T03:50:48;101071.88;;;17.61;96.59
61472;BME280;47337;54.068;12.114;2022-08-03T03:53:15;101062.91;;;17.71;96.19
61472;BME280;47337;54.068;12.114;2022-08-03T03:55:42;101070.00;;;17.71;95.74
61472;BME280;47337;54.068;12.114;2022-08-03T03:58:08;101063.75;;;17.76;95.27
61472;BME280;47337;54.068;12.114;2022-08-03T04:00:34;101060.84;;;17.91;94.88
61472;BME280;47337;54.068;12.114;2022-08-03T04:02:59;101062.22;;;18.18;94.00
61472;BME280;47337;54.068;12.114;2022-08-03T04:05:25;101056.22;;;18.58;92.38
61472;BME280;47337;54.068;12.114;2022-08-03T04:08:11;101049.25;;;18.98;89.72
61472;BME280;47337;54.068;12.114;2022-08-03T04:11:27;101031.25;;;19.54;86.80
61472;BME280;47337;54.068;12.114;2022-08-03T04:16:34;100994.41;;;21.07;80.49
61472;BME280;47337;54.068;12.114;2022-08-03T04:19:07;100973.66;;;21.74;77.10
61472;BME280;47337;54.068;12.114;2022-08-03T04:21:39;100956.38;;;22.37;73.81
61472;BME280;47337;54.068;12.114;2022-08-03T04:24:08;100947.97;;;22.97;71.47
61472;BME280;47337;54.068;12.114;2022-08-03T04:26:38;100933.56;;;23.45;69.62
61472;BME280;47337;54.068;12.114;2022-08-03T04:29:05;100919.16;;;23.91;67.68
61472;BME280;47337;54.068;12.114;2022-08-03T04:31:31;100903.84;;;24.56;65.41
61472;BME280;47337;54.068;12.114;2022-08-03T04:33:57;100902.84;;;24.77;63.71
61472;BME280;47337;54.068;12.114;2022-08-03T04:36:25;100895.06;;;25.10;62.83
61472;BME280;47337;54.068;12.114;2022-08-03T04:39:21;100881.84;;;25.60;61.38
61472;BME280;47337;54.068;12.114;2022-08-03T04:41:48;100873.16;;;26.24;60.01
61472;BME280;47337;54.068;12.114;2022-08-03T04:44:18;100866.88;;;26.74;58.63
61472;BME280;47337;54.068;12.114;2022-08-03T04:46:45;100857.38;;;27.31;57.25
61472;BME280;47337;54.068;12.114;2022-08-03T04:49:12;100857.56;;;27.74;55.86
61472;BME280;47337;54.068;12.114;2022-08-03T04:51:38;100862.28;;;26.43;57.56
61472;BME280;47337;54.068;12.114;2022-08-03T04:54:04;100878.25;;;25.60;59.22
61472;BME280;47337;54.068;12.114;2022-08-03T04:56:32;100889.94;;;25.41;60.28
61472;BME280;47337;54.068;12.114;2022-08-03T04:58:58;100893.88;;;24.97;61.32
61472;BME280;47337;54.068;12.114;2022-08-03T05:01:24;100910.22;;;24.72;62.55
61472;BME280;47337;54.068;12.114;2022-08-03T05:03:54;100924.97;;;24.43;63.14
61472;BME280;47337;54.068;12.114;2022-08-03T05:06:19;100920.41;;;24.84;63.06
61472;BME280;47337;54.068;12.114;2022-08-03T05:08:45;100909.53;;;25.43;60.82
61472;BME280;47337;54.068;12.114;2022-08-03T05:11:10;100900.50;;;25.44;60.27
61472;BME280;47337;54.068;12.114;2022-08-03T05:13:35;100906.25;;;24.80;61.03
61472;BME280;47337;54.068;12.114;2022-08-03T05:16:04;100916.41;;;24.74;61.74
61472;BME280;47337;54.068;12.114;2022-08-03T05:18:29;100920.97;;;24.72;62.10
61472;BME280;47337;54.068;12.114;2022-08-03T05:20:56;100918.03;;;25.53;60.29
61472;BME280;47337;54.068;12.114;2022-08-03T05:23:21;100894.03;;;26.19;58.45
61472;BME280;47337;54.068;12.114;2022-08-03T05:25:47;100866.31;;;27.16;55.89
61472;BME280;47337;54.068;12.114;2022-08-03T05:28:15;100847.69;;;27.58;54.24
61472;BME280;47337;54.068;12.114;2022-08-03T05:30:40;100822.03;;;28.25;51.73
61472;BME280;47337;54.068;12.114;2022-08-03T05:33:06;100826.91;;;28.75;50.86
61472;BME280;47337;54.068;12.114;2022-08-03T05:35:31;100806.66;;;29.51;49.35
61472;BME280;47337;54.068;12.114;2022-08-03T05:37:59;100794.75;;;30.05;47.47
61472;BME280;47337;54.068;12.114;2022-08-03T05:40:25;100804.75;;;29.65;48.14
61472;BME280;47337;54.068;12.114;2022-08-03T05:42:50;100790.59;;;30.50;46.58
61472;BME280;47337;54.068;12.114;2022-08-03T05:45:15;100778.75;;;30.77;45.29
61472;BME280;47337;54.068;12.114;2022-08-03T05:47:44;100797.41;;;31.05;45.21
61472;BME280;47337;54.068;12.114;2022-08-03T05:50:11;100782.88;;;31.89;43.84
61472;BME280;47337;54.068;12.114;2022-08-03T05:52:37;100778.56;;;31.62;43.66
61472;BME280;47337;54.068;12.114;2022-08-03T05:55:06;100774.19;;;32.19;43.07
61472;BME280;47337;54.068;12.114;2022-08-03T05:57:32;100765.53;;;32.36;42.50
61472;BME280;47337;54.068;12.114;2022-08-03T05:59:58;100759.53;;;31.86;42.49
61472;BME280;47337;54.068;12.114;2022-08-03T06:02:24;100758.94;;;32.16;41.92
61472;BME280;47337;54.068;12.114;2022-08-03T06:04:49;100764.06;;;31.40;43.31
61472;BME280;47337;54.068;12.114;2022-08-03T06:07:14;100749.19;;;30.61;43.42
61472;BME280;47337;54.068;12.114;2022-08-03T06:09:40;100779.53;;;29.77;45.76
61472;BME280;47337;54.068;12.114;2022-08-03T06:12:06;100782.41;;;29.49;46.15
61472;BME280;47337;54.068;12.114;2022-08-03T06:14:31;100769.97;;;29.20;46.34
61472;BME280;47337;54.068;12.114;2022-08-03T06:16:59;100782.81;;;28.89;46.88
61472;BME280;47337;54.068;12.114;2022-08-03T06:19:25;100783.63;;;28.34;47.56
61472;BME280;47337;54.068;12.114;2022-08-03T06:21:51;100793.16;;;28.40;48.16
61472;BME280;47337;54.068;12.114;2022-08-03T06:24:17;100799.06;;;28.32;48.31
61472;BME280;47337;54.068;12.114;2022-08-03T06:26:42;100792.38;;;27.95;48.69
61472;BME280;47337;54.068;12.114;2022-08-03T06:29:07;100804.34;;;28.05;49.03
61472;BME280;47337;54.068;12.114;2022-08-03T06:31:33;100814.88;;;27.80;49.40
61472;BME280;47337;54.068;12.114;2022-08-03T06:33:58;100815.81;;;27.95;49.61
61472;BME280;47337;54.068;12.114;2022-08-03T06:36:24;100814.47;;;28.16;48.59
61472;BME280;47337;54.068;12.114;2022-08-03T06:38:56;100814.94;;;27.94;49.27
61472;BME280;47337;54.068;12.114;2022-08-03T06:41:21;100816.88;;;27.77;49.33
61472;BME280;47337;54.068;12.114;2022-08-03T06:43:46;100836.22;;;27.99;49.27
61472;BME280;47337;54.068;12.114;2022-08-03T06:46:14;100843.00;;;27.76;49.88
61472;BME280;47337;54.068;12.114;2022-08-03T06:48:40;100834.31;;;28.01;49.42
61472;BME280;47337;54.068;12.114;2022-08-03T06:51:06;100845.50;;;28.39;48.97
61472;BME280;47337;54.068;12.114;2022-08-03T06:53:31;100836.84;;;28.18;49.25
61472;BME280;47337;54.068;12.114;2022-08-03T06:56:05;100850.78;;;28.55;49.25
61472;BME280;47337;54.068;12.114;2022-08-03T06:58:33;100831.19;;;28.51;48.55
61472;BME280;47337;54.068;12.114;2022-08-03T07:01:01;100844.59;;;28.67;48.87
61472;BME280;47337;54.068;12.114;2022-08-03T07:03:27;100833.69;;;28.83;48.00
61472;BME280;47337;54.068;12.114;2022-08-03T07:05:52;100834.25;;;28.73;48.41
61472;BME280;47337;54.068;12.114;2022-08-03T07:08:17;100835.16;;;28.60;48.28
61472;BME280;47337;54.068;12.114;2022-08-03T07:10:44;100842.38;;;28.31;49.28
61472;BME280;47337;54.068;12.114;2022-08-03T07:13:10;100862.94;;;28.62;48.88
61472;BME280;47337;54.068;12.114;2022-08-03T07:15:35;100849.34;;;28.49;49.06
61472;BME280;47337;54.068;12.114;2022-08-03T07:18:01;100851.63;;;28.41;49.10
61472;BME280;47337;54.068;12.114;2022-08-03T07:20:26;100863.78;;;28.62;49.45
61472;BME280;47337;54.068;12.114;2022-08-03T07:22:52;100855.63;;;28.92;48.34
61472;BME280;47337;54.068;12.114;2022-08-03T07:25:20;100856.59;;;29.18;48.36
61472;BME280;47337;54.068;12.114;2022-08-03T07:27:48;100846.66;;;28.92;48.49
61472;BME280;47337;54.068;12.114;2022-08-03T07:30:16;100860.75;;;29.24;48.45
61472;BME280;47337;54.068;12.114;2022-08-03T07:32:42;100856.88;;;29.28;48.31
61472;BME280;47337;54.068;12.114;2022-08-03T07:35:09;100858.50;;;29.44;48.10
61472;BME280;47337;54.068;12.114;2022-08-03T07:37:35;100858.63;;;29.14;48.67
61472;BME280;47337;54.068;12.114;2022-08-03T07:40:03;100869.59;;;28.99;49.11
61472;BME280;47337;54.068;12.114;2022-08-03T07:42:29;100879.13;;;29.19;49.03
61472;BME280;47337;54.068;12.114;2022-08-03T07:44:55;100872.28;;;29.54;48.79
61472;BME280;47337;54.068;12.114;2022-08-03T07:47:23;100863.03;;;29.30;48.85
61472;BME280;47337;54.068;12.114;2022-08-03T07:49:50;100870.22;;;29.17;49.31
61472;BME280;47337;54.068;12.114;2022-08-03T07:52:15;100876.97;;;29.77;48.44
61472;BME280;47337;54.068;12.114;2022-08-03T07:54:59;100872.00;;;29.71;48.38
61472;BME280;47337;54.068;12.114;2022-08-03T07:57:25;100859.47;;;29.83;48.18
61472;BME280;47337;54.068;12.114;2022-08-03T07:59:50;100870.59;;;29.78;48.79
61472;BME280;47337;54.068;12.114;2022-08-03T08:02:16;100869.41;;;29.97;48.16
61472;BME280;47337;54.068;12.114;2022-08-03T08:04:41;100863.59;;;29.49;48.77
61472;BME280;47337;54.068;12.114;2022-08-03T08:07:09;100870.47;;;29.67;48.67
61472;BME280;47337;54.068;12.114;2022-08-03T08:09:36;100873.72;;;29.72;48.53
61472;BME280;47337;54.068;12.114;2022-08-03T08:12:02;100859.56;;;29.42;49.15
61472;BME280;47337;54.068;12.114;2022-08-03T08:14:28;100869.84;;;29.76;48.76
61472;BME280;47337;54.068;12.114;2022-08-03T08:16:54;100867.97;;;29.64;48.90
61472;BME280;47337;54.068;12.114;2022-08-03T08:19:19;100868.63;;;30.20;48.43
61472;BME280;47337;54.068;12.114;2022-08-03T08:21:45;100860.28;;;30.10;48.29
61472;BME280;47337;54.068;12.114;2022-08-03T08:24:10;100853.69;;;30.14;48.07
61472;BME280;47337;54.068;12.114;2022-08-03T08:26:36;100849.03;;;30.16;47.88
61472;BME280;47337;54.068;12.114;2022-08-03T08:29:02;100853.69;;;30.02;47.93
61472;BME280;47337;54.068;12.114;2022-08-03T08:31:28;100832.22;;;29.32;48.57
61472;BME280;47337;54.068;12.114;2022-08-03T08:33:53;100838.56;;;29.45;48.88
61472;BME280;47337;54.068;12.114;2022-08-03T08:36:18;100845.94;;;29.56;48.99
61472;BME280;47337;54.068;12.114;2022-08-03T08:38:44;100851.59;;;29.53;49.15
61472;BME280;47337;54.068;12.114;2022-08-03T08:41:10;100856.13;;;29.53;48.93
61472;BME280;47337;54.068;12.114;2022-08-03T08:43:40;100849.22;;;29.61;48.61
61472;BME280;47337;54.068;12.114;2022-08-03T08:46:06;100851.88;;;29.88;48.63
61472;BME280;47337;54.068;12.114;2022-08-03T08:48:34;100846.53;;;30.01;47.81
61472;BME280;47337;54.068;12.114;2022-08-03T08:51:01;100853.72;;;30.27;47.82
61472;BME280;47337;54.068;12.114;2022-08-03T08:53:28;100851.00;;;30.40;47.41
61472;BME280;47337;54.068;12.114;2022-08-03T08:55:57;100843.75;;;30.40;47.06
61472;BME280;47337;54.068;12.114;2022-08-03T08:58:25;100843.94;;;30.63;47.17
61472;BME280;47337;54.068;12.114;2022-08-03T09:00:52;100826.13;;;30.84;45.98
61472;BME280;47337;54.068;12.114;2022-08-03T09:03:18;100818.78;;;30.35;46.71
61472;BME280;47337;54.068;12.114;2022-08-03T09:05:44;100820.88;;;30.19;46.70
61472;BME280;47337;54.068;12.114;2022-08-03T09:08:11;100813.38;;;30.61;46.07
61472;BME280;47337;54.068;12.114;2022-08-03T09:10:39;100812.63;;;30.59;46.26
61472;BME280;47337;54.068;12.114;2022-08-03T09:13:09;100814.00;;;30.51;46.20
61472;BME280;47337;54.068;12.114;2022-08-03T09:15:35;100823.34;;;30.35;46.46
61472;BME280;47337;54.068;12.114;2022-08-03T09:18:03;100811.22;;;30.02;46.73
61472;BME280;47337;54.068;12.114;2022-08-03T09:20:31;100819.03;;;30.58;46.48
61472;BME280;47337;54.068;12.114;2022-08-03T09:23:01;100830.88;;;30.93;45.85
61472;BME280;47337;54.068;12.114;2022-08-03T09:25:37;100832.53;;;31.19;45.63
61472;BME280;47337;54.068;12.114;2022-08-03T09:28:11;100822.56;;;31.20;45.44
61472;BME280;47337;54.068;12.114;2022-08-03T09:30:39;100821.91;;;31.16;45.39
61472;BME280;47337;54.068;12.114;2022-08-03T09:33:13;100799.81;;;31.10;44.72
61472;BME280;47337;54.068;12.114;2022-08-03T09:35:43;100805.59;;;31.29;44.28
61472;BME280;47337;54.068;12.114;2022-08-03T09:40:48;100813.50;;;30.96;45.22
61472;BME280;47337;54.068;12.114;2022-08-03T09:43:14;100810.16;;;31.28;44.76
61472;BME280;47337;54.068;12.114;2022-08-03T09:45:39;100809.97;;;31.43;44.90
61472;BME280;47337;54.068;12.114;2022-08-03T09:48:28;100784.53;;;30.96;44.45
61472;BME280;47337;54.068;12.114;2022-08-03T09:50:58;100798.88;;;31.46;44.21
61472;BME280;47337;54.068;12.114;2022-08-03T09:53:24;100804.38;;;31.57;44.18
61472;BME280;47337;54.068;12.114;2022-08-03T09:56:00;100775.69;;;31.05;44.34
61472;BME280;47337;54.068;12.114;2022-08-03T09:58:28;100771.94;;;30.95;44.58
61472;BME280;47337;54.068;12.114;2022-08-03T10:01:04;100783.34;;;31.00;45.18
61472;BME280;47337;54.068;12.114;2022-08-03T10:03:32;100783.34;;;31.00;44.87
61472;BME280;47337;54.068;12.114;2022-08-03T10:06:14;100788.41;;;31.52;44.34
61472;BME280;47337;54.068;12.114;2022-08-03T10:08:42;100783.63;;;31.56;44.25
61472;BME280;47337;54.068;12.114;2022-08-03T10:11:07;100788.28;;;31.78;44.16
61472;BME280;47337;54.068;12.114;2022-08-03T10:13:33;100770.72;;;31.36;44.33
61472;BME280;47337;54.068;12.114;2022-08-03T10:15:58;100773.72;;;31.20;44.38
61472;BME280;47337;54.068;12.114;2022-08-03T10:18:24;100773.19;;;31.39;44.45
61472;BME280;47337;54.068;12.114;2022-08-03T10:20:54;100770.41;;;31.51;44.46
61472;BME280;47337;54.068;12.114;2022-08-03T10:23:23;100771.88;;;31.90;44.02
61472;BME280;47337;54.068;12.114;2022-08-03T10:25:53;100776.59;;;32.11;43.61
61472;BME280;47337;54.068;12.114;2022-08-03T10:28:22;100774.63;;;32.13;43.79
61472;BME280;47337;54.068;12.114;2022-08-03T10:30:52;100780.09;;;32.46;43.44
61472;BME280;47337;54.068;12.114;2022-08-03T10:33:23;100769.84;;;32.50;43.21
61472;BME280;47337;54.068;12.114;2022-08-03T10:35:53;100759.59;;;32.20;43.24
61472;BME280;47337;54.068;12.114;2022-08-03T10:38:22;100754.13;;;31.97;43.36
61472;BME280;47337;54.068;12.114;2022-08-03T10:40:50;100758.25;;;31.79;43.84
61472;BME280;47337;54.068;12.114;2022-08-03T10:43:21;100762.38;;;31.96;43.93
61472;BME280;47337;54.068;12.114;2022-08-03T10:45:48;100752.25;;;31.87;43.88
61472;BME280;47337;54.068;12.114;2022-08-03T10:48:15;100764.91;;;32.21;43.47
61472;BME280;47337;54.068;12.114;2022-08-03T10:50:41;100757.00;;;32.18;43.21
61472;BME280;47337;54.068;12.114;2022-08-03T10:53:08;100748.59;;;32.10;43.40
61472;BME280;47337;54.068;12.114;2022-08-03T10:55:37;100758.88;;;32.29;43.16
61472;BME280;47337;54.068;12.114;2022-08-03T11:01:07;100758.47;;;32.33;42.85
61472;BME280;47337;54.068;12.114;2022-08-03T11:03:33;100755.16;;;32.30;43.21
61472;BME280;47337;54.068;12.114;2022-08-03T11:06:21;100744.25;;;32.08;43.01
61472;BME280;47337;54.068;12.114;2022-08-03T11:08:49;100756.31;;;31.92;43.68
61472;BME280;47337;54.068;12.114;2022-08-03T11:11:44;100758.81;;;32.07;43.41
61472;BME280;47337;54.068;12.114;2022-08-03T11:14:11;100751.69;;;32.28;42.78
61472;BME280;47337;54.068;12.114;2022-08-03T11:16:40;100737.22;;;32.16;42.71
61472;BME280;47337;54.068;12.114;2022-08-03T11:19:10;100728.06;;;31.95;42.63
61472;BME280;47337;54.068;12.114;2022-08-03T11:27:30;100738.28;;;31.91;43.21
61472;BME280;47337;54.068;12.114;2022-08-03T11:37:34;100713.09;;;31.89;42.87
61472;BME280;47337;54.068;12.114;2022-08-03T11:39:59;100727.94;;;31.96;42.65
61472;BME280;47337;54.068;12.114;2022-08-03T11:44:58;100716.09;;;31.97;42.60
61472;BME280;47337;54.068;12.114;2022-08-03T11:47:26;100729.44;;;32.34;42.48
61472;BME280;47337;54.068;12.114;2022-08-03T11:49:56;100729.44;;;32.45;41.89
61472;BME280;47337;54.068;12.114;2022-08-03T11:52:23;100739.41;;;32.67;42.16
61472;BME280;47337;54.068;12.114;2022-08-03T11:54:52;100729.66;;;32.76;42.05
61472;BME280;47337;54.068;12.114;2022-08-03T11:57:32;100721.91;;;32.49;41.95
61472;BME280;47337;54.068;12.114;2022-08-03T11:59:58;100723.88;;;32.47;41.95
61472;BME280;47337;54.068;12.114;2022-08-03T12:02:24;100725.97;;;32.43;42.23
61472;BME280;47337;54.068;12.114;2022-08-03T12:07:18;100717.34;;;32.27;41.94
61472;BME280;47337;54.068;12.114;2022-08-03T12:10:04;100725.56;;;31.92;42.58
61472;BME280;47337;54.068;12.114;2022-08-03T12:12:30;100720.81;;;32.18;42.27
61472;BME280;47337;54.068;12.114;2022-08-03T12:14:55;100724.84;;;32.12;42.85
61472;BME280;47337;54.068;12.114;2022-08-03T12:17:22;100737.97;;;32.52;42.57
61472;BME280;47337;54.068;12.114;2022-08-03T12:19:48;100715.06;;;32.54;41.45
61472;BME280;47337;54.068;12.114;2022-08-03T12:22:32;100710.50;;;33.09;40.82
61472;BME280;47337;54.068;12.114;2022-08-03T12:25:04;100700.69;;;32.86;40.67
61472;BME280;47337;54.068;12.114;2022-08-03T12:27:30;100716.06;;;32.76;41.34
61472;BME280;47337;54.068;12.114;2022-08-03T12:29:59;100709.38;;;32.80;41.09
61472;BME280;47337;54.068;12.114;2022-08-03T12:32:29;100717.41;;;33.13;41.03
61472;BME280;47337;54.068;12.114;2022-08-03T12:34:56;100700.41;;;33.00;40.75
61472;BME280;47337;54.068;12.114;2022-08-03T12:37:25;100703.91;;;33.23;40.52
61472;BME280;47337;54.068;12.114;2022-08-03T12:39:53;100695.16;;;33.40;40.30
61472;BME280;47337;54.068;12.114;2022-08-03T12:42:20;100700.72;;;33.38;40.29
61472;BME280;47337;54.068;12.114;2022-08-03T12:44:45;100703.91;;;32.91;41.09
61472;BME280;47337;54.068;12.114;2022-08-03T12:47:13;100703.78;;;33.24;40.99
61472;BME280;47337;54.068;12.114;2022-08-03T12:49:47;100720.78;;;33.37;40.81
61472;BME280;47337;54.068;12.114;2022-08-03T12:52:13;100707.50;;;33.44;40.40
61472;BME280;47337;54.068;12.114;2022-08-03T12:54:39;100694.84;;;33.22;40.03
61472;BME280;47337;54.068;12.114;2022-08-03T12:57:12;100694.47;;;33.27;39.92
61472;BME280;47337;54.068;12.114;2022-08-03T12:59:42;100691.56;;;33.39;40.13
61472;BME280;47337;54.068;12.114;2022-08-03T13:02:19;100698.69;;;34.03;39.65
61472;BME280;47337;54.068;12.114;2022-08-03T13:04:45;100716.91;;;34.02;39.71
61472;BME280;47337;54.068;12.114;2022-08-03T13:07:12;100690.06;;;33.26;40.02
61472;BME280;47337;54.068;12.114;2022-08-03T13:09:44;100698.34;;;33.45;40.02
61472;BME280;47337;54.068;12.114;2022-08-03T13:12:14;100703.19;;;33.62;40.02
61472;BME280;47337;54.068;12.114;2022-08-03T13:14:41;100700.59;;;33.61;39.96
61472;BME280;47337;54.068;12.114;2022-08-03T13:17:07;100676.97;;;33.40;39.70
61472;BME280;47337;54.068;12.114;2022-08-03T13:19:38;100682.28;;;33.10;40.35
61472;BME280;47337;54.068;12.114;2022-08-03T13:22:15;100696.63;;;33.23;40.40
61472;BME280;47337;54.068;12.114;2022-08-03T13:24:43;100693.56;;;33.37;40.14